sensor_id;sensor_type;location;lat;lon;timestamp;P1;durP1;ratioP1;P2;durP2;ratioP2
1294;SDS011;640;48.310;11.728;2022-11-20T00:01:09;4.50;;;3.58;;
1294;SDS011;640;48.310;11.728;2022-11-20T00:06:07;4.50;;;3.22;;
1294;SDS011;640;48.310;11.728;2022-11-20T00:08:36;4.50;;;3.83;;
1294;SDS011;640;48.310;11.728;2022-11-20T00:11:06;4.03;;;3.60;;
1294;SDS011;640;48.310;11.728;2022-11-20T00:13:42;4.47;;;3.38;;
1294;SDS011;640;48.310;11.728;2022-11-20T00:16:11;5.15;;;3.45;;
1294;SDS011;640;48.310;11.728;2022-11-20T00:18:40;4.43;;;3.25;;
1294;SDS011;640;48.310;11.728;2022-11-20T00:21:11;3.40;;;2.80;;
1294;SDS011;640;48.310;11.728;2022-11-20T00:26:11;5.82;;;3.90;;
1294;SDS011;640;48.310;11.728;2022-11-20T00:28:40;5.63;;;3.60;;
1294;SDS011;640;48.310;11.728;2022-11-20T00:31:10;4.85;;;3.47;;
1294;SDS011;640;48.310;11.728;2022-11-20T00:33:40;3.80;;;3.03;;
1294;SDS011;640;48.310;11.728;2022-11-20T00:36:09;7.57;;;3.72;;
1294;SDS011;640;48.310;11.728;2022-11-20T00:38:38;6.95;;;3.83;;
1294;SDS011;640;48.310;11.728;2022-11-20T00:41:07;6.28;;;3.90;;
1294;SDS011;640;48.310;11.728;2022-11-20T00:43:37;4.03;;;3.50;;
1294;SDS011;640;48.310;11.728;2022-11-20T00:46:06;4.70;;;3.45;;
1294;SDS011;640;48.310;11.728;2022-11-20T00:48:36;5.00;;;3.90;;
1294;SDS011;640;48.310;11.728;2022-11-20T00:51:04;4.85;;;3.60;;
1294;SDS011;640;48.310;11.728;2022-11-20T00:53:33;4.10;;;3.10;;
1294;SDS011;640;48.310;11.728;2022-11-20T00:56:02;5.63;;;3.80;;
1294;SDS011;640;48.310;11.728;2022-11-20T00:58:32;4.38;;;3.60;;
1294;SDS011;640;48.310;11.728;2022-11-20T01:01:04;5.13;;;3.88;;
1294;SDS011;640;48.310;11.728;2022-11-20T01:03:34;4.93;;;3.78;;
1294;SDS011;640;48.310;11.728;2022-11-20T01:06:03;4.97;;;3.72;;
1294;SDS011;640;48.310;11.728;2022-11-20T01:08:33;5.00;;;3.70;;
1294;SDS011;640;48.310;11.728;2022-11-20T01:11:03;6.53;;;4.00;;
1294;SDS011;640;48.310;11.728;2022-11-20T01:13:33;5.90;;;4.07;;
1294;SDS011;640;48.310;11.728;2022-11-20T01:16:07;4.95;;;3.47;;
1294;SDS011;640;48.310;11.728;2022-11-20T01:18:38;4.63;;;3.70;;
1294;SDS011;640;48.310;11.728;2022-11-20T01:21:08;5.80;;;3.90;;
1294;SDS011;640;48.310;11.728;2022-11-20T01:23:39;6.10;;;3.40;;
1294;SDS011;640;48.310;11.728;2022-11-20T01:26:09;5.35;;;3.70;;
1294;SDS011;640;48.310;11.728;2022-11-20T01:28:38;5.00;;;3.13;;
1294;SDS011;640;48.310;11.728;2022-11-20T01:31:12;5.50;;;4.00;;
1294;SDS011;640;48.310;11.728;2022-11-20T01:33:41;6.68;;;3.90;;
1294;SDS011;640;48.310;11.728;2022-11-20T01:36:10;4.63;;;3.67;;
1294;SDS011;640;48.310;11.728;2022-11-20T01:38:39;4.97;;;3.85;;
1294;SDS011;640;48.310;11.728;2022-11-20T01:41:08;4.30;;;3.78;;
1294;SDS011;640;48.310;11.728;2022-11-20T01:43:37;5.15;;;3.88;;
1294;SDS011;640;48.310;11.728;2022-11-20T01:46:15;4.90;;;3.72;;
1294;SDS011;640;48.310;11.728;2022-11-20T01:48:48;3.58;;;2.88;;
1294;SDS011;640;48.310;11.728;2022-11-20T01:51:21;3.97;;;3.45;;
1294;SDS011;640;48.310;11.728;2022-11-20T01:53:53;6.13;;;3.30;;
1294;SDS011;640;48.310;11.728;2022-11-20T01:56:22;7.18;;;3.78;;
1294;SDS011;640;48.310;11.728;2022-11-20T01:58:51;5.72;;;3.20;;
1294;SDS011;640;48.310;11.728;2022-11-20T02:01:22;5.05;;;3.88;;
1294;SDS011;640;48.310;11.728;2022-11-20T02:03:51;4.75;;;3.65;;
1294;SDS011;640;48.310;11.728;2022-11-20T02:06:22;3.97;;;3.20;;
1294;SDS011;640;48.310;11.728;2022-11-20T02:08:52;4.05;;;3.30;;
1294;SDS011;640;48.310;11.728;2022-11-20T02:11:20;5.57;;;4.00;;
1294;SDS011;640;48.310;11.728;2022-11-20T02:13:49;7.70;;;3.53;;
1294;SDS011;640;48.310;11.728;2022-11-20T02:16:18;6.38;;;3.83;;
1294;SDS011;640;48.310;11.728;2022-11-20T02:18:50;4.72;;;3.20;;
1294;SDS011;640;48.310;11.728;2022-11-20T02:21:21;5.80;;;3.67;;
1294;SDS011;640;48.310;11.728;2022-11-20T02:23:59;6.32;;;3.97;;
1294;SDS011;640;48.310;11.728;2022-11-20T02:26:30;4.88;;;3.50;;
1294;SDS011;640;48.310;11.728;2022-11-20T02:29:00;5.30;;;3.65;;
1294;SDS011;640;48.310;11.728;2022-11-20T02:31:28;5.68;;;3.95;;
1294;SDS011;640;48.310;11.728;2022-11-20T02:33:57;4.70;;;3.40;;
1294;SDS011;640;48.310;11.728;2022-11-20T02:36:26;5.53;;;3.60;;
1294;SDS011;640;48.310;11.728;2022-11-20T02:38:55;6.10;;;3.58;;
1294;SDS011;640;48.310;11.728;2022-11-20T02:41:31;5.88;;;4.18;;
1294;SDS011;640;48.310;11.728;2022-11-20T02:44:00;5.35;;;3.83;;
1294;SDS011;640;48.310;11.728;2022-11-20T02:46:29;4.80;;;3.83;;
1294;SDS011;640;48.310;11.728;2022-11-20T02:48:57;4.72;;;3.47;;
1294;SDS011;640;48.310;11.728;2022-11-20T02:51:26;4.70;;;3.67;;
1294;SDS011;640;48.310;11.728;2022-11-20T02:53:54;5.10;;;3.95;;
1294;SDS011;640;48.310;11.728;2022-11-20T02:56:22;5.35;;;4.25;;
1294;SDS011;640;48.310;11.728;2022-11-20T02:58:52;6.53;;;4.18;;
1294;SDS011;640;48.310;11.728;2022-11-20T03:01:21;4.95;;;3.92;;
1294;SDS011;640;48.310;11.728;2022-11-20T03:03:49;3.92;;;3.38;;
1294;SDS011;640;48.310;11.728;2022-11-20T03:06:19;5.10;;;3.45;;
1294;SDS011;640;48.310;11.728;2022-11-20T03:08:47;6.43;;;4.07;;
1294;SDS011;640;48.310;11.728;2022-11-20T03:11:15;7.40;;;3.72;;
1294;SDS011;640;48.310;11.728;2022-11-20T03:13:43;5.10;;;3.72;;
1294;SDS011;640;48.310;11.728;2022-11-20T03:16:14;5.78;;;3.72;;
1294;SDS011;640;48.310;11.728;2022-11-20T03:18:43;4.43;;;3.45;;
1294;SDS011;640;48.310;11.728;2022-11-20T03:21:12;5.45;;;3.70;;
1294;SDS011;640;48.310;11.728;2022-11-20T03:23:41;4.20;;;3.80;;
1294;SDS011;640;48.310;11.728;2022-11-20T03:26:10;5.35;;;4.03;;
1294;SDS011;640;48.310;11.728;2022-11-20T03:31:08;7.43;;;3.85;;
1294;SDS011;640;48.310;11.728;2022-11-20T03:33:39;4.28;;;3.38;;
1294;SDS011;640;48.310;11.728;2022-11-20T03:36:08;4.40;;;3.60;;
1294;SDS011;640;48.310;11.728;2022-11-20T03:38:37;5.87;;;4.03;;
1294;SDS011;640;48.310;11.728;2022-11-20T03:41:06;4.75;;;2.95;;
1294;SDS011;640;48.310;11.728;2022-11-20T03:43:35;4.47;;;3.13;;
1294;SDS011;640;48.310;11.728;2022-11-20T03:46:04;4.65;;;3.47;;
1294;SDS011;640;48.310;11.728;2022-11-20T03:48:33;5.07;;;3.78;;
1294;SDS011;640;48.310;11.728;2022-11-20T03:51:10;6.05;;;3.80;;
1294;SDS011;640;48.310;11.728;2022-11-20T03:53:39;4.75;;;3.88;;
1294;SDS011;640;48.310;11.728;2022-11-20T03:56:08;4.20;;;2.97;;
1294;SDS011;640;48.310;11.728;2022-11-20T03:58:38;6.03;;;3.75;;
1294;SDS011;640;48.310;11.728;2022-11-20T04:01:07;4.43;;;3.22;;
1294;SDS011;640;48.310;11.728;2022-11-20T04:03:37;5.82;;;4.07;;
1294;SDS011;640;48.310;11.728;2022-11-20T04:06:07;6.40;;;4.10;;
1294;SDS011;640;48.310;11.728;2022-11-20T04:08:37;4.60;;;3.83;;
1294;SDS011;640;48.310;11.728;2022-11-20T04:11:10;5.28;;;3.75;;
1294;SDS011;640;48.310;11.728;2022-11-20T04:13:39;3.72;;;3.13;;
1294;SDS011;640;48.310;11.728;2022-11-20T04:16:07;6.15;;;3.83;;
1294;SDS011;640;48.310;11.728;2022-11-20T04:18:37;4.35;;;3.05;;
1294;SDS011;640;48.310;11.728;2022-11-20T04:21:05;5.47;;;4.18;;
1294;SDS011;640;48.310;11.728;2022-11-20T04:23:33;6.72;;;3.97;;
1294;SDS011;640;48.310;11.728;2022-11-20T04:26:04;5.88;;;3.95;;
1294;SDS011;640;48.310;11.728;2022-11-20T04:28:33;6.72;;;3.70;;
1294;SDS011;640;48.310;11.728;2022-11-20T04:31:02;4.40;;;3.45;;
1294;SDS011;640;48.310;11.728;2022-11-20T04:33:31;5.43;;;3.80;;
1294;SDS011;640;48.310;11.728;2022-11-20T04:36:01;5.00;;;3.65;;
1294;SDS011;640;48.310;11.728;2022-11-20T04:38:30;5.55;;;3.50;;
1294;SDS011;640;48.310;11.728;2022-11-20T04:40:58;4.38;;;3.58;;
1294;SDS011;640;48.310;11.728;2022-11-20T04:43:28;4.75;;;3.55;;
1294;SDS011;640;48.310;11.728;2022-11-20T04:45:57;6.03;;;3.63;;
1294;SDS011;640;48.310;11.728;2022-11-20T04:48:26;5.25;;;3.65;;
1294;SDS011;640;48.310;11.728;2022-11-20T04:50:56;5.75;;;3.25;;
1294;SDS011;640;48.310;11.728;2022-11-20T04:53:24;3.92;;;3.10;;
1294;SDS011;640;48.310;11.728;2022-11-20T04:55:58;6.72;;;3.92;;
1294;SDS011;640;48.310;11.728;2022-11-20T04:58:29;4.03;;;3.20;;
1294;SDS011;640;48.310;11.728;2022-11-20T05:01:00;4.10;;;3.43;;
1294;SDS011;640;48.310;11.728;2022-11-20T05:03:30;5.18;;;3.35;;
1294;SDS011;640;48.310;11.728;2022-11-20T05:06:04;3.85;;;3.35;;
1294;SDS011;640;48.310;11.728;2022-11-20T05:08:34;4.43;;;3.10;;
1294;SDS011;640;48.310;11.728;2022-11-20T05:11:03;3.92;;;2.97;;
1294;SDS011;640;48.310;11.728;2022-11-20T05:13:33;4.17;;;3.23;;
1294;SDS011;640;48.310;11.728;2022-11-20T05:16:02;3.20;;;2.73;;
1294;SDS011;640;48.310;11.728;2022-11-20T05:18:31;4.95;;;3.20;;
1294;SDS011;640;48.310;11.728;2022-11-20T05:21:00;4.65;;;3.42;;
1294;SDS011;640;48.310;11.728;2022-11-20T05:23:29;4.07;;;3.08;;
1294;SDS011;640;48.310;11.728;2022-11-20T05:25:58;5.75;;;3.58;;
1294;SDS011;640;48.310;11.728;2022-11-20T05:28:26;6.50;;;3.85;;
1294;SDS011;640;48.310;11.728;2022-11-20T05:31:03;5.97;;;3.80;;
1294;SDS011;640;48.310;11.728;2022-11-20T05:33:32;5.78;;;3.67;;
1294;SDS011;640;48.310;11.728;2022-11-20T05:36:01;6.85;;;3.80;;
1294;SDS011;640;48.310;11.728;2022-11-20T05:38:29;5.45;;;3.50;;
1294;SDS011;640;48.310;11.728;2022-11-20T05:41:02;5.13;;;3.60;;
1294;SDS011;640;48.310;11.728;2022-11-20T05:43:32;4.13;;;3.47;;
1294;SDS011;640;48.310;11.728;2022-11-20T05:46:03;4.67;;;3.60;;
1294;SDS011;640;48.310;11.728;2022-11-20T05:48:32;5.10;;;4.25;;
1294;SDS011;640;48.310;11.728;2022-11-20T05:51:02;4.97;;;3.72;;
1294;SDS011;640;48.310;11.728;2022-11-20T05:53:31;5.50;;;4.25;;
1294;SDS011;640;48.310;11.728;2022-11-20T05:56:01;5.00;;;3.95;;
1294;SDS011;640;48.310;11.728;2022-11-20T05:58:30;5.20;;;4.10;;
1294;SDS011;640;48.310;11.728;2022-11-20T06:01:04;5.68;;;3.67;;
1294;SDS011;640;48.310;11.728;2022-11-20T06:03:33;4.53;;;3.70;;
1294;SDS011;640;48.310;11.728;2022-11-20T06:06:02;5.28;;;3.80;;
1294;SDS011;640;48.310;11.728;2022-11-20T06:08:32;4.82;;;3.60;;
1294;SDS011;640;48.310;11.728;2022-11-20T06:11:03;3.88;;;3.30;;
1294;SDS011;640;48.310;11.728;2022-11-20T06:13:32;5.05;;;3.63;;
1294;SDS011;640;48.310;11.728;2022-11-20T06:16:09;3.25;;;2.95;;
1294;SDS011;640;48.310;11.728;2022-11-20T06:18:38;8.27;;;3.80;;
1294;SDS011;640;48.310;11.728;2022-11-20T06:21:07;5.00;;;3.75;;
1294;SDS011;640;48.310;11.728;2022-11-20T06:23:37;6.45;;;4.03;;
1294;SDS011;640;48.310;11.728;2022-11-20T06:26:06;5.68;;;3.72;;
1294;SDS011;640;48.310;11.728;2022-11-20T06:28:35;4.82;;;3.67;;
1294;SDS011;640;48.310;11.728;2022-11-20T06:31:04;4.30;;;3.80;;
1294;SDS011;640;48.310;11.728;2022-11-20T06:33:34;3.60;;;3.20;;
1294;SDS011;640;48.310;11.728;2022-11-20T06:36:02;4.00;;;3.33;;
1294;SDS011;640;48.310;11.728;2022-11-20T06:38:36;4.80;;;3.30;;
1294;SDS011;640;48.310;11.728;2022-11-20T06:41:05;3.30;;;3.00;;
1294;SDS011;640;48.310;11.728;2022-11-20T06:43:34;3.45;;;3.15;;
1294;SDS011;640;48.310;11.728;2022-11-20T06:46:02;3.60;;;3.00;;
1294;SDS011;640;48.310;11.728;2022-11-20T06:48:31;3.60;;;3.00;;
1294;SDS011;640;48.310;11.728;2022-11-20T06:51:00;4.07;;;3.05;;
1294;SDS011;640;48.310;11.728;2022-11-20T06:53:30;3.28;;;2.78;;
1294;SDS011;640;48.310;11.728;2022-11-20T06:55:59;3.90;;;3.20;;
1294;SDS011;640;48.310;11.728;2022-11-20T06:58:27;3.40;;;3.10;;
1294;SDS011;640;48.310;11.728;2022-11-20T07:00:57;3.20;;;2.90;;
1294;SDS011;640;48.310;11.728;2022-11-20T07:03:26;3.45;;;2.67;;
1294;SDS011;640;48.310;11.728;2022-11-20T07:05:55;4.30;;;2.90;;
1294;SDS011;640;48.310;11.728;2022-11-20T07:08:25;4.13;;;3.08;;
1294;SDS011;640;48.310;11.728;2022-11-20T07:10:56;4.13;;;2.87;;
1294;SDS011;640;48.310;11.728;2022-11-20T07:13:25;3.42;;;3.03;;
1294;SDS011;640;48.310;11.728;2022-11-20T07:15:54;5.50;;;3.20;;
1294;SDS011;640;48.310;11.728;2022-11-20T07:18:22;3.83;;;3.15;;
1294;SDS011;640;48.310;11.728;2022-11-20T07:20:51;3.67;;;3.15;;
1294;SDS011;640;48.310;11.728;2022-11-20T07:23:19;3.67;;;3.05;;
1294;SDS011;640;48.310;11.728;2022-11-20T07:25:49;4.18;;;2.95;;
1294;SDS011;640;48.310;11.728;2022-11-20T07:28:17;4.22;;;3.03;;
1294;SDS011;640;48.310;11.728;2022-11-20T07:30:49;3.20;;;2.90;;
1294;SDS011;640;48.310;11.728;2022-11-20T07:33:17;3.95;;;3.08;;
1294;SDS011;640;48.310;11.728;2022-11-20T07:35:46;4.88;;;2.92;;
1294;SDS011;640;48.310;11.728;2022-11-20T07:38:14;14.45;;;11.15;;
1294;SDS011;640;48.310;11.728;2022-11-20T07:40:42;2.80;;;2.60;;
1294;SDS011;640;48.310;11.728;2022-11-20T07:43:12;3.53;;;2.70;;
1294;SDS011;640;48.310;11.728;2022-11-20T07:45:40;3.38;;;2.80;;
1294;SDS011;640;48.310;11.728;2022-11-20T07:48:09;3.00;;;2.70;;
1294;SDS011;640;48.310;11.728;2022-11-20T07:50:37;3.22;;;2.80;;
1294;SDS011;640;48.310;11.728;2022-11-20T07:53:05;3.90;;;3.10;;
1294;SDS011;640;48.310;11.728;2022-11-20T07:55:34;3.10;;;2.78;;
1294;SDS011;640;48.310;11.728;2022-11-20T07:58:02;4.03;;;3.10;;
1294;SDS011;640;48.310;11.728;2022-11-20T08:00:32;3.15;;;2.63;;
1294;SDS011;640;48.310;11.728;2022-11-20T08:03:02;4.83;;;3.03;;
1294;SDS011;640;48.310;11.728;2022-11-20T08:05:31;4.55;;;2.80;;
1294;SDS011;640;48.310;11.728;2022-11-20T08:07:59;3.25;;;2.60;;
1294;SDS011;640;48.310;11.728;2022-11-20T08:10:27;4.72;;;2.70;;
1294;SDS011;640;48.310;11.728;2022-11-20T08:12:56;3.08;;;2.50;;
1294;SDS011;640;48.310;11.728;2022-11-20T08:15:47;3.28;;;2.45;;
1294;SDS011;640;48.310;11.728;2022-11-20T08:18:16;4.40;;;2.70;;
1294;SDS011;640;48.310;11.728;2022-11-20T08:21:01;4.78;;;3.05;;
1294;SDS011;640;48.310;11.728;2022-11-20T08:23:30;3.30;;;2.88;;
1294;SDS011;640;48.310;11.728;2022-11-20T08:25:59;3.83;;;2.83;;
1294;SDS011;640;48.310;11.728;2022-11-20T08:28:27;3.25;;;2.80;;
1294;SDS011;640;48.310;11.728;2022-11-20T08:30:58;2.30;;;2.03;;
1294;SDS011;640;48.310;11.728;2022-11-20T08:33:27;3.53;;;3.13;;
1294;SDS011;640;48.310;11.728;2022-11-20T08:35:58;3.65;;;2.72;;
1294;SDS011;640;48.310;11.728;2022-11-20T08:40:56;5.25;;;2.70;;
1294;SDS011;640;48.310;11.728;2022-11-20T08:43:42;2.70;;;2.28;;
1294;SDS011;640;48.310;11.728;2022-11-20T08:46:12;4.00;;;2.60;;
1294;SDS011;640;48.310;11.728;2022-11-20T08:48:40;2.83;;;2.38;;
1294;SDS011;640;48.310;11.728;2022-11-20T08:51:09;3.25;;;2.80;;
1294;SDS011;640;48.310;11.728;2022-11-20T08:53:37;3.65;;;2.58;;
1294;SDS011;640;48.310;11.728;2022-11-20T08:56:06;4.25;;;3.17;;
1294;SDS011;640;48.310;11.728;2022-11-20T08:58:36;4.68;;;3.10;;
1294;SDS011;640;48.310;11.728;2022-11-20T09:01:26;3.42;;;2.42;;
1294;SDS011;640;48.310;11.728;2022-11-20T09:03:55;4.00;;;2.67;;
1294;SDS011;640;48.310;11.728;2022-11-20T09:06:24;3.17;;;2.50;;
1294;SDS011;640;48.310;11.728;2022-11-20T09:08:52;3.40;;;2.70;;
1294;SDS011;640;48.310;11.728;2022-11-20T09:11:20;6.22;;;3.45;;
1294;SDS011;640;48.310;11.728;2022-11-20T09:13:49;4.88;;;2.95;;
1294;SDS011;640;48.310;11.728;2022-11-20T09:16:17;4.10;;;3.17;;
1294;SDS011;640;48.310;11.728;2022-11-20T09:18:49;3.00;;;2.70;;
1294;SDS011;640;48.310;11.728;2022-11-20T09:21:37;6.60;;;2.60;;
1294;SDS011;640;48.310;11.728;2022-11-20T09:24:06;4.35;;;2.70;;
1294;SDS011;640;48.310;11.728;2022-11-20T09:26:34;3.60;;;2.53;;
1294;SDS011;640;48.310;11.728;2022-11-20T09:29:03;2.92;;;2.47;;
1294;SDS011;640;48.310;11.728;2022-11-20T09:31:31;3.17;;;2.55;;
1294;SDS011;640;48.310;11.728;2022-11-20T09:34:05;2.83;;;2.03;;
1294;SDS011;640;48.310;11.728;2022-11-20T09:36:33;6.47;;;2.30;;
1294;SDS011;640;48.310;11.728;2022-11-20T09:39:02;2.92;;;2.15;;
1294;SDS011;640;48.310;11.728;2022-11-20T09:41:36;4.18;;;2.30;;
1294;SDS011;640;48.310;11.728;2022-11-20T09:44:19;2.40;;;1.92;;
1294;SDS011;640;48.310;11.728;2022-11-20T09:46:59;1.83;;;1.23;;
1294;SDS011;640;48.310;11.728;2022-11-20T09:49:32;4.53;;;1.98;;
1294;SDS011;640;48.310;11.728;2022-11-20T09:52:12;3.78;;;1.80;;
1294;SDS011;640;48.310;11.728;2022-11-20T09:54:48;2.40;;;1.67;;
1294;SDS011;640;48.310;11.728;2022-11-20T09:57:17;2.72;;;1.55;;
1294;SDS011;640;48.310;11.728;2022-11-20T09:59:48;4.60;;;2.50;;
1294;SDS011;640;48.310;11.728;2022-11-20T10:02:22;3.55;;;1.85;;
1294;SDS011;640;48.310;11.728;2022-11-20T10:04:57;4.57;;;2.53;;
1294;SDS011;640;48.310;11.728;2022-11-20T10:07:28;3.65;;;2.47;;
1294;SDS011;640;48.310;11.728;2022-11-20T10:09:59;3.30;;;2.25;;
1294;SDS011;640;48.310;11.728;2022-11-20T10:12:31;3.60;;;2.25;;
1294;SDS011;640;48.310;11.728;2022-11-20T10:15:09;2.33;;;2.00;;
1294;SDS011;640;48.310;11.728;2022-11-20T10:17:50;4.05;;;2.30;;
1294;SDS011;640;48.310;11.728;2022-11-20T10:20:30;2.22;;;1.90;;
1294;SDS011;640;48.310;11.728;2022-11-20T10:23:10;4.85;;;2.20;;
1294;SDS011;640;48.310;11.728;2022-11-20T10:25:53;3.13;;;1.95;;
1294;SDS011;640;48.310;11.728;2022-11-20T10:31:25;2.78;;;1.75;;
1294;SDS011;640;48.310;11.728;2022-11-20T10:33:56;2.00;;;1.67;;
1294;SDS011;640;48.310;11.728;2022-11-20T10:39:18;1.88;;;1.60;;
1294;SDS011;640;48.310;11.728;2022-11-20T10:41:51;2.22;;;1.40;;
1294;SDS011;640;48.310;11.728;2022-11-20T10:44:21;2.10;;;1.90;;
1294;SDS011;640;48.310;11.728;2022-11-20T10:47:11;2.50;;;1.73;;
1294;SDS011;640;48.310;11.728;2022-11-20T10:49:41;4.25;;;2.10;;
1294;SDS011;640;48.310;11.728;2022-11-20T10:52:13;2.47;;;1.80;;
1294;SDS011;640;48.310;11.728;2022-11-20T10:54:47;1.25;;;1.10;;
1294;SDS011;640;48.310;11.728;2022-11-20T10:57:24;1.58;;;1.20;;
1294;SDS011;640;48.310;11.728;2022-11-20T10:59:59;1.63;;;1.40;;
1294;SDS011;640;48.310;11.728;2022-11-20T11:02:32;2.08;;;1.52;;
1294;SDS011;640;48.310;11.728;2022-11-20T11:05:06;1.70;;;1.40;;
1294;SDS011;640;48.310;11.728;2022-11-20T11:07:41;1.45;;;0.95;;
1294;SDS011;640;48.310;11.728;2022-11-20T11:10:14;1.23;;;0.80;;
1294;SDS011;640;48.310;11.728;2022-11-20T11:12:45;1.40;;;1.27;;
1294;SDS011;640;48.310;11.728;2022-11-20T11:15:24;1.50;;;1.13;;
1294;SDS011;640;48.310;11.728;2022-11-20T11:17:53;1.30;;;1.10;;
1294;SDS011;640;48.310;11.728;2022-11-20T11:20:22;1.52;;;1.27;;
1294;SDS011;640;48.310;11.728;2022-11-20T11:22:53;1.55;;;1.10;;
1294;SDS011;640;48.310;11.728;2022-11-20T11:25:24;1.10;;;1.00;;
1294;SDS011;640;48.310;11.728;2022-11-20T11:27:55;1.13;;;1.02;;
1294;SDS011;640;48.310;11.728;2022-11-20T11:30:25;2.38;;;1.10;;
1294;SDS011;640;48.310;11.728;2022-11-20T11:33:02;1.83;;;1.08;;
1294;SDS011;640;48.310;11.728;2022-11-20T11:35:33;1.83;;;1.10;;
1294;SDS011;640;48.310;11.728;2022-11-20T11:38:06;1.98;;;1.33;;
1294;SDS011;640;48.310;11.728;2022-11-20T11:40:39;1.67;;;0.95;;
1294;SDS011;640;48.310;11.728;2022-11-20T11:43:16;0.75;;;0.68;;
1294;SDS011;640;48.310;11.728;2022-11-20T11:46:04;1.55;;;0.93;;
1294;SDS011;640;48.310;11.728;2022-11-20T11:48:36;1.63;;;0.90;;
1294;SDS011;640;48.310;11.728;2022-11-20T11:51:07;1.85;;;1.00;;
1294;SDS011;640;48.310;11.728;2022-11-20T11:53:37;2.05;;;1.17;;
1294;SDS011;640;48.310;11.728;2022-11-20T11:56:09;0.77;;;0.70;;
1294;SDS011;640;48.310;11.728;2022-11-20T11:58:41;1.55;;;0.82;;
1294;SDS011;640;48.310;11.728;2022-11-20T12:01:20;0.98;;;0.82;;
1294;SDS011;640;48.310;11.728;2022-11-20T12:03:55;1.20;;;0.60;;
1294;SDS011;640;48.310;11.728;2022-11-20T12:06:26;1.40;;;0.90;;
1294;SDS011;640;48.310;11.728;2022-11-20T12:08:59;1.30;;;0.80;;
1294;SDS011;640;48.310;11.728;2022-11-20T12:11:30;1.30;;;1.20;;
1294;SDS011;640;48.310;11.728;2022-11-20T12:14:02;2.08;;;1.23;;
1294;SDS011;640;48.310;11.728;2022-11-20T12:16:38;1.40;;;1.30;;
1294;SDS011;640;48.310;11.728;2022-11-20T12:19:07;2.22;;;1.17;;
1294;SDS011;640;48.310;11.728;2022-11-20T12:21:38;1.40;;;1.20;;
1294;SDS011;640;48.310;11.728;2022-11-20T12:24:18;1.08;;;1.00;;
1294;SDS011;640;48.310;11.728;2022-11-20T12:27:04;1.73;;;1.37;;
1294;SDS011;640;48.310;11.728;2022-11-20T12:29:43;1.77;;;1.67;;
1294;SDS011;640;48.310;11.728;2022-11-20T12:32:25;1.85;;;1.45;;
1294;SDS011;640;48.310;11.728;2022-11-20T12:35:02;2.35;;;1.30;;
1294;SDS011;640;48.310;11.728;2022-11-20T12:37:38;1.55;;;1.40;;
1294;SDS011;640;48.310;11.728;2022-11-20T12:40:18;3.17;;;1.50;;
1294;SDS011;640;48.310;11.728;2022-11-20T12:42:57;1.77;;;1.38;;
1294;SDS011;640;48.310;11.728;2022-11-20T12:45:59;3.20;;;1.83;;
1294;SDS011;640;48.310;11.728;2022-11-20T12:48:41;2.13;;;1.42;;
1294;SDS011;640;48.310;11.728;2022-11-20T12:51:16;1.45;;;1.27;;
1294;SDS011;640;48.310;11.728;2022-11-20T12:54:06;2.13;;;1.70;;
1294;SDS011;640;48.310;11.728;2022-11-20T12:56:55;3.15;;;2.47;;
1294;SDS011;640;48.310;11.728;2022-11-20T12:59:33;2.20;;;1.42;;
1294;SDS011;640;48.310;11.728;2022-11-20T13:02:17;2.08;;;1.42;;
1294;SDS011;640;48.310;11.728;2022-11-20T13:04:59;3.40;;;1.50;;
1294;SDS011;640;48.310;11.728;2022-11-20T13:07:38;1.23;;;1.13;;
1294;SDS011;640;48.310;11.728;2022-11-20T13:10:10;1.60;;;1.20;;
1294;SDS011;640;48.310;11.728;2022-11-20T13:12:45;1.85;;;1.60;;
1294;SDS011;640;48.310;11.728;2022-11-20T13:15:17;2.30;;;1.08;;
1294;SDS011;640;48.310;11.728;2022-11-20T13:17:55;1.02;;;0.90;;
1294;SDS011;640;48.310;11.728;2022-11-20T13:20:26;1.33;;;1.02;;
1294;SDS011;640;48.310;11.728;2022-11-20T13:22:55;1.40;;;1.10;;
1294;SDS011;640;48.310;11.728;2022-11-20T13:25:26;1.52;;;1.00;;
1294;SDS011;640;48.310;11.728;2022-11-20T13:27:57;1.20;;;1.08;;
1294;SDS011;640;48.310;11.728;2022-11-20T13:30:27;1.17;;;1.08;;
1294;SDS011;640;48.310;11.728;2022-11-20T13:32:56;1.60;;;1.02;;
1294;SDS011;640;48.310;11.728;2022-11-20T13:35:31;1.15;;;1.00;;
1294;SDS011;640;48.310;11.728;2022-11-20T13:38:04;2.05;;;1.15;;
1294;SDS011;640;48.310;11.728;2022-11-20T13:40:35;1.52;;;1.10;;
1294;SDS011;640;48.310;11.728;2022-11-20T13:43:10;1.30;;;1.20;;
1294;SDS011;640;48.310;11.728;2022-11-20T13:45:54;1.23;;;0.90;;
1294;SDS011;640;48.310;11.728;2022-11-20T13:48:24;2.25;;;1.33;;
1294;SDS011;640;48.310;11.728;2022-11-20T13:50:55;1.75;;;1.08;;
1294;SDS011;640;48.310;11.728;2022-11-20T13:53:35;3.60;;;1.05;;
1294;SDS011;640;48.310;11.728;2022-11-20T13:56:14;1.05;;;0.90;;
1294;SDS011;640;48.310;11.728;2022-11-20T13:58:50;1.48;;;1.17;;
1294;SDS011;640;48.310;11.728;2022-11-20T14:01:30;1.17;;;1.00;;
1294;SDS011;640;48.310;11.728;2022-11-20T14:03:59;1.75;;;1.27;;
1294;SDS011;640;48.310;11.728;2022-11-20T14:06:34;1.42;;;1.25;;
1294;SDS011;640;48.310;11.728;2022-11-20T14:09:10;1.23;;;0.80;;
1294;SDS011;640;48.310;11.728;2022-11-20T14:11:45;1.48;;;1.00;;
1294;SDS011;640;48.310;11.728;2022-11-20T14:14:16;3.53;;;1.20;;
1294;SDS011;640;48.310;11.728;2022-11-20T14:16:47;1.35;;;0.93;;
1294;SDS011;640;48.310;11.728;2022-11-20T14:22:09;1.08;;;0.90;;
1294;SDS011;640;48.310;11.728;2022-11-20T14:24:42;1.60;;;1.13;;
1294;SDS011;640;48.310;11.728;2022-11-20T14:27:12;1.45;;;0.73;;
1294;SDS011;640;48.310;11.728;2022-11-20T14:29:42;1.30;;;0.70;;
1294;SDS011;640;48.310;11.728;2022-11-20T14:32:11;1.10;;;0.88;;
1294;SDS011;640;48.310;11.728;2022-11-20T14:34:43;1.27;;;0.95;;
1294;SDS011;640;48.310;11.728;2022-11-20T14:37:13;1.90;;;1.10;;
1294;SDS011;640;48.310;11.728;2022-11-20T14:39:48;1.60;;;1.45;;
1294;SDS011;640;48.310;11.728;2022-11-20T14:42:18;1.63;;;1.52;;
1294;SDS011;640;48.310;11.728;2022-11-20T14:44:49;3.10;;;1.95;;
1294;SDS011;640;48.310;11.728;2022-11-20T14:49:47;2.05;;;1.73;;
1294;SDS011;640;48.310;11.728;2022-11-20T14:52:17;1.92;;;1.73;;
1294;SDS011;640;48.310;11.728;2022-11-20T14:54:46;2.75;;;1.80;;
1294;SDS011;640;48.310;11.728;2022-11-20T14:57:23;1.85;;;1.70;;
1294;SDS011;640;48.310;11.728;2022-11-20T15:00:05;2.67;;;2.00;;
1294;SDS011;640;48.310;11.728;2022-11-20T15:02:38;1.83;;;1.70;;
1294;SDS011;640;48.310;11.728;2022-11-20T15:05:07;2.70;;;1.92;;
1294;SDS011;640;48.310;11.728;2022-11-20T15:07:36;3.60;;;2.30;;
1294;SDS011;640;48.310;11.728;2022-11-20T15:10:07;2.50;;;2.08;;
1294;SDS011;640;48.310;11.728;2022-11-20T15:12:37;3.35;;;2.10;;
1294;SDS011;640;48.310;11.728;2022-11-20T15:15:10;2.05;;;1.90;;
1294;SDS011;640;48.310;11.728;2022-11-20T15:17:39;3.42;;;2.03;;
1294;SDS011;640;48.310;11.728;2022-11-20T15:20:09;2.47;;;2.03;;
1294;SDS011;640;48.310;11.728;2022-11-20T15:22:40;3.15;;;2.20;;
1294;SDS011;640;48.310;11.728;2022-11-20T15:25:11;4.25;;;2.00;;
1294;SDS011;640;48.310;11.728;2022-11-20T15:27:41;3.63;;;2.20;;
1294;SDS011;640;48.310;11.728;2022-11-20T15:30:15;2.53;;;1.90;;
1294;SDS011;640;48.310;11.728;2022-11-20T15:32:45;3.15;;;2.38;;
1294;SDS011;640;48.310;11.728;2022-11-20T15:35:15;2.20;;;1.90;;
1294;SDS011;640;48.310;11.728;2022-11-20T15:37:43;2.17;;;1.90;;
1294;SDS011;640;48.310;11.728;2022-11-20T15:40:12;2.60;;;1.92;;
1294;SDS011;640;48.310;11.728;2022-11-20T15:42:40;2.05;;;1.52;;
1294;SDS011;640;48.310;11.728;2022-11-20T15:45:38;2.05;;;1.88;;
1294;SDS011;640;48.310;11.728;2022-11-20T15:48:08;2.08;;;1.80;;
1294;SDS011;640;48.310;11.728;2022-11-20T15:50:41;2.47;;;1.88;;
1294;SDS011;640;48.310;11.728;2022-11-20T15:53:16;1.73;;;1.58;;
1294;SDS011;640;48.310;11.728;2022-11-20T15:55:45;1.70;;;1.60;;
1294;SDS011;640;48.310;11.728;2022-11-20T15:58:13;1.63;;;1.40;;
1294;SDS011;640;48.310;11.728;2022-11-20T16:00:57;2.20;;;2.00;;
1294;SDS011;640;48.310;11.728;2022-11-20T16:03:25;1.75;;;1.63;;